Time;durP1;ratioP1;P1;durP2;ratioP2;P2;SDS_P1;SDS_P2;PMS_P1;PMS_P2;Temp;Humidity;BMP_temperature;BMP_pressure;BME280_temperature;BME280_humidity;BME280_pressure;Samples;Min_cycle;Max_cycle;Signal;HPM_P1;HPM_P2
2022/10/11 00:02:04;;;;;;;22.50;12.05;;;;;;;12.58;88.67;97688.31;5064980;28;20045;-67
2022/10/11 00:04:30;;;;;;;18.02;10.85;;;;;;;13.36;88.91;97819.34;5066806;28;20080;-69
2022/10/11 00:06:57;;;;;;;19.90;11.05;;;;;;;12.80;89.30;97745.91;5066441;28;20049;-69
2022/10/11 00:09:23;;;;;;;19.88;11.52;;;;;;;11.08;89.30;97481.28;5065308;28;20101;-68
2022/10/11 00:11:54;;;;;;;21.10;12.38;;;;;;;13.50;88.74;97816.81;5066358;28;20060;-68
2022/10/11 00:14:22;;;;;;;14.68;11.13;;;;;;;13.17;88.94;97760.13;5066681;28;20157;-68
2022/10/11 00:16:49;;;;;;;14.35;10.50;;;;;;;12.83;88.38;97714.59;5064829;28;20087;-67
2022/10/11 00:19:16;;;;;;;18.13;11.13;;;;;;;13.19;89.01;97768.91;5064972;28;20494;-68
2022/10/11 00:21:43;;;;;;;16.25;11.30;;;;;;;13.52;88.85;97811.69;5064486;28;20514;-68
2022/10/11 00:24:10;;;;;;;18.08;11.27;;;;;;;13.52;88.72;97800.53;5064587;28;20079;-68
2022/10/11 00:26:37;;;;;;;17.10;10.88;;;;;;;13.38;89.24;97789.16;5064585;28;20135;-68
2022/10/11 00:29:11;;;;;;;16.83;10.50;;;;;;;13.00;89.52;97761.44;5051741;28;20139;-69
2022/10/11 00:31:38;;;;;;;18.30;11.60;;;;;;;13.30;88.79;97759.59;5045688;28;20159;-69
2022/10/11 00:34:05;;;;;;;19.92;11.32;;;;;;;13.64;88.67;97813.47;5044470;28;20099;-68
2022/10/11 00:36:32;;;;;;;14.85;11.10;;;;;;;13.60;89.40;97795.91;5045967;28;20161;-68
2022/10/11 00:38:58;;;;;;;15.40;10.73;;;;;;;13.19;89.02;97725.22;5044391;28;20480;-68
2022/10/11 00:41:25;;;;;;;18.05;10.88;;;;;;;13.50;89.76;97797.31;5046109;28;20057;-69
2022/10/11 00:44:11;;;;;;;15.98;11.32;;;;;;;13.61;90.03;97789.97;5044696;28;20103;-68
2022/10/11 00:46:41;;;;;;;14.02;10.80;;;;;;;13.09;89.52;97686.88;5045708;28;20139;-68
2022/10/11 00:49:18;;;;;;;21.17;12.10;;;;;;;13.36;89.50;97733.06;5044473;28;20044;-68
2022/10/11 00:51:51;;;;;;;18.55;11.45;;;;;;;13.86;88.88;97775.66;5045667;28;20084;-68
2022/10/11 00:54:22;;;;;;;25.13;11.23;;;;;;;13.73;89.28;97783.41;5046178;28;20127;-68
2022/10/11 00:56:54;;;;;;;20.35;11.52;;;;;;;13.43;88.54;97724.84;5045917;28;20265;-69
2022/10/11 00:59:25;;;;;;;17.20;11.15;;;;;;;13.77;89.17;97787.03;5046005;28;20107;-68
2022/10/11 01:01:52;;;;;;;18.25;10.98;;;;;;;13.86;89.05;97773.69;5045711;28;20103;-68
2022/10/11 01:04:19;;;;;;;18.38;11.20;;;;;;;13.87;89.23;97771.69;5045848;28;20152;-68
2022/10/11 01:06:48;;;;;;;16.63;11.20;;;;;;;13.96;88.81;97780.59;5045707;28;20507;-68
2022/10/11 01:09:16;;;;;;;18.33;10.80;;;;;;;13.06;88.97;97631.19;5044342;28;20476;-68
2022/10/11 01:11:43;;;;;;;17.02;10.85;;;;;;;13.99;89.02;97768.69;5045495;28;20064;-68
2022/10/11 01:14:22;;;;;;;18.88;11.00;;;;;;;13.94;89.44;97763.44;5043233;28;20557;-68
2022/10/11 01:17:21;;;;;;;17.90;10.73;;;;;;;13.97;89.59;97762.69;5045291;28;20136;-68
2022/10/11 01:19:54;;;;;;;16.45;10.20;;;;;;;13.89;90.77;97752.63;5042287;28;20136;-68
2022/10/11 01:22:45;;;;;;;18.50;10.43;;;;;;;13.74;92.19;97750.81;5045150;28;20564;-68
2022/10/11 01:25:41;;;;;;;17.50;11.73;;;;;;;13.58;93.20;97737.81;5045293;28;20044;-67
2022/10/11 01:28:19;;;;;;;17.67;10.65;;;;;;;13.63;93.59;97718.00;5048562;28;20098;-68
2022/10/11 01:30:47;;;;;;;17.95;10.52;;;;;;;13.78;93.56;97737.72;5063756;28;20044;-67
2022/10/11 01:33:18;;;;;;;16.73;10.48;;;;;;;13.82;93.96;97736.59;5063333;28;20522;-68
2022/10/11 01:35:51;;;;;;;19.98;11.70;;;;;;;13.89;93.45;97735.91;5063943;28;20049;-67
2022/10/11 01:38:36;;;;;;;15.07;10.70;;;;;;;13.81;94.32;97731.41;5064549;28;20133;-68
2022/10/11 01:41:09;;;;;;;17.92;10.85;;;;;;;13.65;93.05;97676.69;5064489;28;20510;-69
2022/10/11 01:43:37;;;;;;;15.73;11.00;;;;;;;13.42;92.65;97634.16;5064865;28;20076;-69
2022/10/11 01:46:06;;;;;;;19.50;10.90;;;;;;;11.82;93.82;97396.81;5063179;28;20052;-68
2022/10/11 01:48:46;;;;;;;15.40;10.45;;;;;;;13.69;95.21;97683.09;5064680;28;20125;-67
2022/10/11 01:51:13;;;;;;;16.30;10.68;;;;;;;13.70;96.69;97715.31;5064938;28;20075;-68
2022/10/11 01:53:51;;;;;;;16.55;10.23;;;;;;;13.47;95.92;97631.06;5063119;28;20094;-68
2022/10/11 01:57:09;;;;;;;17.58;10.10;;;;;;;14.15;95.30;97722.75;5062991;28;20139;-68
2022/10/11 01:59:57;;;;;;;14.95;9.65;;;;;;;14.27;95.14;97730.13;5062376;28;20431;-69
2022/10/11 02:02:36;;;;;;;21.10;10.25;;;;;;;14.35;94.68;97726.25;5064428;28;20060;-68
2022/10/11 02:05:31;;;;;;;14.38;9.32;;;;;;;14.31;94.59;97720.63;5064605;28;20083;-68
2022/10/11 02:08:27;;;;;;;16.58;9.50;;;;;;;14.41;94.45;97730.31;5064175;28;20139;-69
2022/10/11 02:11:03;;;;;;;16.67;9.43;;;;;;;14.47;93.84;97717.63;5063450;28;20052;-68
2022/10/11 02:13:46;;;;;;;12.63;9.02;;;;;;;14.04;93.22;97638.22;5062588;28;20506;-69
2022/10/11 02:16:19;;;;;;;13.30;9.02;;;;;;;14.23;92.97;97662.34;5064358;28;20084;-68
2022/10/11 02:18:49;;;;;;;14.15;8.45;;;;;;;14.59;92.44;97714.63;5064326;28;20099;-68
2022/10/11 02:21:19;;;;;;;17.52;9.35;;;;;;;13.87;92.77;97599.00;5063777;28;20484;-67
2022/10/11 02:23:56;;;;;;;12.15;8.80;;;;;;;14.45;93.05;97692.13;5064486;28;20048;-68
2022/10/11 02:26:26;;;;;;;19.92;9.80;;;;;;;14.54;92.97;97707.38;5063960;28;20534;-67
2022/10/11 02:28:56;;;;;;;14.85;9.98;;;;;;;14.44;92.75;97690.53;5054032;28;20136;-69
2022/10/11 02:31:24;;;;;;;15.38;10.07;;;;;;;14.33;92.08;97662.53;5042316;28;20222;-68
2022/10/11 02:34:18;;;;;;;16.92;9.55;;;;;;;14.60;92.14;97700.28;5042593;28;20060;-68
2022/10/11 02:36:50;;;;;;;;;;;;;;;14.57;92.42;97695.47;5043038;28;20057;-69
2022/10/11 02:39:23;;;;;;;15.07;9.80;;;;;;;14.49;92.66;97692.97;5042480;28;20688;-69
2022/10/11 02:41:51;;;;;;;;;;;;;;;14.11;96.36;97694.06;5044197;28;20075;-69
2022/10/11 02:44:25;;;;;;;15.40;9.13;;;;;;;14.14;95.62;97698.88;5043844;28;19971;-69
2022/10/11 02:46:53;;;;;;;19.50;11.55;;;;;;;13.74;94.39;97629.06;5043942;28;20138;-69
2022/10/11 02:49:20;;;;;;;26.30;12.48;;;;;;;13.85;97.88;97704.44;5043744;28;20150;-69
2022/10/11 02:51:47;;;;;;;18.45;10.85;;;;;;;13.64;99.15;97672.28;5043535;28;20350;-69
2022/10/11 02:54:14;;;;;;;21.15;11.70;;;;;;;13.29;98.43;97648.69;5043822;28;20466;-68
2022/10/11 02:56:40;;;;;;;15.45;9.75;;;;;;;14.02;98.25;97701.09;5042348;28;20150;-68
2022/10/11 02:59:07;;;;;;;18.88;10.63;;;;;;;13.78;97.84;97651.41;5042140;28;20083;-68
2022/10/11 03:01:34;;;;;;;16.63;10.73;;;;;;;14.06;98.60;97718.63;5043705;28;20157;-68
2022/10/11 03:04:00;;;;;;;14.25;9.70;;;;;;;13.97;99.78;97693.06;5043702;28;20092;-68
2022/10/11 03:06:27;;;;;;;18.35;10.40;;;;;;;13.72;99.83;97647.34;5043549;28;20641;-69
2022/10/11 03:08:53;;;;;;;16.48;10.85;;;;;;;13.13;99.12;97528.41;5043357;28;20488;-69
2022/10/11 03:11:20;;;;;;;16.60;10.20;;;;;;;14.11;98.58;97698.81;5041961;28;20053;-70
2022/10/11 03:13:47;;;;;;;17.00;10.90;;;;;;;14.34;96.21;97696.75;5042150;28;20129;-70
2022/10/11 03:16:13;;;;;;;19.95;10.38;;;;;;;12.77;95.49;97440.81;5042078;28;20098;-68
2022/10/11 03:18:40;;;;;;;20.58;11.68;;;;;;;14.38;95.71;97689.25;5043533;28;20127;-70
2022/10/11 03:21:07;;;;;;;16.17;10.63;;;;;;;13.69;94.05;97582.88;5043558;28;20142;-67
2022/10/11 03:23:34;;;;;;;15.82;10.95;;;;;;;14.37;94.26;97687.66;5042195;28;20052;-69
2022/10/11 03:26:01;;;;;;;15.05;10.82;;;;;;;14.08;94.30;97649.44;5043180;28;20335;-66
2022/10/11 03:28:28;;;;;;;15.85;10.00;;;;;;;14.41;93.09;97682.91;5048185;28;20533;-68
2022/10/11 03:30:55;;;;;;;13.88;9.35;;;;;;;14.38;93.38;97686.47;5063736;28;20139;-69
2022/10/11 03:33:21;;;;;;;14.57;9.93;;;;;;;14.26;93.45;97661.63;5063458;28;20068;-69
2022/10/11 03:35:49;;;;;;;17.92;9.63;;;;;;;14.22;92.59;97639.28;5063364;28;20133;-68
2022/10/11 03:38:19;;;;;;;22.95;11.50;;;;;;;13.70;93.40;97573.31;5065553;28;20524;-70
2022/10/11 03:40:46;;;;;;;17.90;10.00;;;;;;;14.18;93.90;97654.34;5066935;28;20408;-68
2022/10/11 03:43:13;;;;;;;21.55;11.10;;;;;;;14.36;93.90;97684.06;5066923;28;20113;-68
2022/10/11 03:45:43;;;;;;;18.88;12.80;;;;;;;14.12;94.77;97653.03;5066685;28;20056;-70
2022/10/11 03:48:10;;;;;;;20.65;11.90;;;;;;;14.44;92.95;97684.94;5066980;28;20107;-69
2022/10/11 03:50:38;;;;;;;23.30;12.23;;;;;;;14.42;91.93;97670.56;5066558;28;20149;-68
2022/10/11 03:53:05;;;;;;;19.00;11.95;;;;;;;14.07;92.49;97631.13;5066679;28;20145;-68
2022/10/11 03:55:32;;;;;;;19.60;11.73;;;;;;;12.86;92.44;97441.38;5065194;28;20079;-71
2022/10/11 03:57:59;;;;;;;24.17;13.68;;;;;;;13.76;92.49;97561.84;5065419;28;20473;-69
2022/10/11 04:00:25;;;;;;;19.25;12.63;;;;;;;14.38;92.07;97667.78;5066710;28;20060;-68
2022/10/11 04:02:52;;;;;;;21.80;14.07;;;;;;;14.49;92.39;97693.78;5065250;28;20055;-68
2022/10/11 04:05:19;;;;;;;25.58;14.20;;;;;;;14.53;92.54;97682.66;5066638;28;20473;-69
2022/10/11 04:07:46;;;;;;;21.65;14.40;;;;;;;14.27;92.26;97633.41;5066665;28;20113;-68
2022/10/11 04:10:13;;;;;;;26.42;19.52;;;;;;;14.31;91.85;97636.19;5066735;28;20084;-69
2022/10/11 04:12:39;;;;;;;33.88;19.77;;;;;;;14.31;90.92;97613.91;5066564;28;20135;-69
2022/10/11 04:15:07;;;;;;;34.15;19.77;;;;;;;14.16;91.51;97600.97;5066663;28;20079;-71
2022/10/11 04:17:33;;;;;;;35.45;18.35;;;;;;;14.65;91.69;97662.91;5066015;28;20135;-69
2022/10/11 04:20:00;;;;;;;38.45;18.50;;;;;;;14.70;91.44;97676.50;5066738;28;21412;-68
2022/10/11 04:22:27;;;;;;;23.83;15.20;;;;;;;14.71;91.43;97678.09;5064949;28;20048;-68
2022/10/11 04:24:53;;;;;;;26.25;13.98;;;;;;;13.02;91.06;97433.69;5066306;28;20130;-69
2022/10/11 04:27:20;;;;;;;25.45;14.52;;;;;;;14.48;90.83;97624.47;5066182;28;20080;-69
2022/10/11 04:29:47;;;;;;;22.77;14.52;;;;;;;14.03;91.24;97569.78;5049026;28;20495;-68
2022/10/11 04:32:13;;;;;;;25.48;15.02;;;;;;;14.67;91.51;97666.09;5045876;28;20548;-68
2022/10/11 04:34:40;;;;;;;26.50;15.57;;;;;;;14.61;91.54;97650.88;5046065;28;20053;-68
2022/10/11 04:37:06;;;;;;;24.50;15.35;;;;;;;13.85;91.31;97534.53;5046266;28;20111;-67
2022/10/11 04:39:33;;;;;;;23.02;15.18;;;;;;;14.66;91.15;97670.06;5045549;28;20110;-68
2022/10/11 04:42:00;;;;;;;25.20;14.55;;;;;;;13.83;91.31;97520.97;5044230;28;20057;-68
2022/10/11 04:44:27;;;;;;;24.52;13.90;;;;;;;14.66;92.05;97661.69;5045966;28;20096;-67
2022/10/11 04:46:53;;;;;;;25.08;14.27;;;;;;;14.71;91.32;97667.75;5040622;28;20049;-70
2022/10/11 04:49:20;;;;;;;20.92;13.05;;;;;;;13.79;91.03;97659.38;5038305;28;20107;-67
2022/10/11 04:51:47;;;;;;;21.00;13.98;;;;;;;14.48;91.40;97632.84;5026635;28;20053;-69
2022/10/11 04:54:13;;;;;;;23.80;14.90;;;;;;;14.69;91.24;97660.94;5024664;28;20138;-68
2022/10/11 04:56:40;;;;;;;18.40;13.70;;;;;;;13.22;91.13;97487.19;5024232;28;20053;-71
2022/10/11 04:59:07;;;;;;;27.15;13.27;;;;;;;14.61;91.07;97650.88;5025558;28;20049;-68
2022/10/11 05:01:34;;;;;;;24.60;12.07;;;;;;;14.58;91.45;97668.38;5024144;28;20140;-68
2022/10/11 05:04:00;;;;;;;24.40;12.80;;;;;;;14.59;91.85;97670.00;5025841;28;20061;-68
2022/10/11 05:06:27;;;;;;;17.42;11.15;;;;;;;13.86;92.65;97575.94;5023772;28;20089;-68
2022/10/11 05:08:54;;;;;;;19.58;11.25;;;;;;;14.63;91.82;97676.41;5024219;28;20049;-69
2022/10/11 05:11:21;;;;;;;19.05;12.20;;;;;;;14.78;91.00;97678.16;5025090;28;20057;-67
2022/10/11 05:13:47;;;;;;;18.48;11.23;;;;;;;14.81;90.54;97678.19;5023932;28;20072;-68
2022/10/11 05:16:16;;;;;;;19.50;10.70;;;;;;;14.96;89.25;97679.16;5024145;28;20405;-68
2022/10/11 05:18:43;;;;;;;19.95;10.35;;;;;;;13.90;88.78;97520.25;5025642;28;20103;-68
2022/10/11 05:21:17;;;;;;;20.70;12.02;;;;;;;14.60;88.76;97632.56;5025782;28;20050;-67
2022/10/11 05:23:46;;;;;;;20.30;12.23;;;;;;;14.71;88.44;97639.06;5025261;28;20122;-68
2022/10/11 05:26:13;;;;;;;19.05;11.18;;;;;;;15.01;88.18;97682.41;5024117;28;20276;-69
2022/10/11 05:28:40;;;;;;;16.45;10.68;;;;;;;14.08;88.00;97538.00;5032160;28;20107;-69
2022/10/11 05:31:07;;;;;;;16.85;11.52;;;;;;;15.02;88.08;97683.19;5065198;28;20112;-69
2022/10/11 05:33:34;;;;;;;12.65;9.13;;;;;;;15.10;87.64;97673.72;5063100;28;20052;-67
2022/10/11 05:36:00;;;;;;;15.50;9.55;;;;;;;15.03;88.32;97679.25;5062092;28;20153;-68
2022/10/11 05:38:27;;;;;;;15.32;10.27;;;;;;;15.02;89.02;97683.19;5062878;28;20416;-69
2022/10/11 05:40:59;;;;;;;13.27;9.48;;;;;;;15.13;88.58;97684.91;5064381;28;20553;-68
2022/10/11 05:43:26;;;;;;;17.52;9.82;;;;;;;15.28;87.85;97691.44;5064859;28;20064;-68
2022/10/11 05:45:53;;;;;;;17.88;9.88;;;;;;;15.33;87.40;97698.66;5063013;28;20217;-68
2022/10/11 05:48:20;;;;;;;15.93;9.52;;;;;;;15.39;86.84;97670.03;5035214;28;20132;-69
2022/10/11 05:50:47;;;;;;;18.23;9.10;;;;;;;13.45;85.36;97343.97;5023887;28;20048;-64
2022/10/11 05:53:14;;;;;;;15.63;9.38;;;;;;;15.11;85.52;97603.56;5042824;28;20102;-64
2022/10/11 05:55:42;;;;;;;13.23;9.23;;;;;;;14.84;84.73;97528.81;5049885;28;20045;-67
2022/10/11 05:58:13;;;;;;;14.75;9.05;;;;;;;15.87;83.82;97691.13;5024265;28;20088;-70
2022/10/11 06:00:40;;;;;;;15.80;8.60;;;;;;;16.01;83.86;97677.22;5023803;28;20057;-69
2022/10/11 06:03:09;;;;;;;13.07;8.43;;;;;;;16.11;83.69;97684.88;5022921;28;20095;-66
2022/10/11 06:05:36;;;;;;;12.55;7.68;;;;;;;16.13;82.41;97679.72;5022192;28;20073;-64
2022/10/11 06:08:04;;;;;;;9.57;7.38;;;;;;;16.10;83.04;97683.28;5024596;28;20049;-66
2022/10/11 06:10:31;;;;;;;13.07;6.70;;;;;;;15.96;81.92;97621.75;5024067;28;20089;-64
2022/10/11 06:12:58;;;;;;;10.80;7.25;;;;;;;16.35;81.51;97684.22;5024013;28;20142;-67
2022/10/11 06:15:25;;;;;;;9.30;5.70;;;;;;;16.20;80.85;97642.63;5023282;28;20053;-63
2022/10/11 06:17:52;;;;;;;10.75;6.13;;;;;;;16.55;80.45;97691.13;5024111;28;20057;-63
2022/10/11 06:20:18;;;;;;;9.65;6.35;;;;;;;15.90;79.39;97588.97;5023652;28;20136;-64
2022/10/11 06:22:45;;;;;;;13.70;6.70;;;;;;;16.51;78.29;97642.78;5022627;28;20053;-62
2022/10/11 06:25:11;;;;;;;12.38;6.55;;;;;;;16.32;78.19;97595.53;5024893;28;20077;-69
2022/10/11 06:27:38;;;;;;;12.30;6.22;;;;;;;16.94;78.07;97682.06;5023269;28;20583;-64
2022/10/11 06:30:06;;;;;;;15.85;6.50;;;;;;;16.87;78.66;97684.81;5022183;28;20484;-62
2022/10/11 06:32:32;;;;;;;16.73;7.93;;;;;;;15.70;80.16;97554.13;4995851;28;20065;-63
2022/10/11 06:34:59;;;;;;;10.02;7.03;;;;;;;16.54;78.55;97669.94;5003960;28;20074;-69
2022/10/11 06:37:26;;;;;;;9.40;7.00;;;;;;;15.85;78.21;97503.53;5011948;28;20076;-68
2022/10/11 06:39:52;;;;;;;16.25;6.97;;;;;;;17.13;76.86;97662.09;5002479;28;20518;-67
2022/10/11 06:42:19;;;;;;;9.25;7.25;;;;;;;17.53;75.07;97696.16;5002534;28;20054;-67
2022/10/11 06:44:46;;;;;;;12.02;7.78;;;;;;;17.44;73.99;97638.91;5013549;28;20073;-69
2022/10/11 06:47:12;;;;;;;13.07;6.90;;;;;;;17.98;73.57;97700.13;5003978;28;20157;-68
2022/10/11 06:49:39;;;;;;;11.20;7.40;;;;;;;18.05;72.61;97702.94;5022836;28;20507;-64
2022/10/11 06:52:05;;;;;;;9.45;7.00;;;;;;;17.56;72.83;97627.34;5015296;28;20049;-69
2022/10/11 06:54:32;;;;;;;14.75;7.85;;;;;;;17.14;72.27;97585.28;5023163;28;20093;-68
2022/10/11 06:56:59;;;;;;;17.38;7.78;;;;;;;17.33;71.17;97635.31;5024058;28;20331;-66
2022/10/11 06:59:25;;;;;;;10.25;7.57;;;;;;;17.52;74.05;97702.16;5023964;28;20073;-70
2022/10/11 07:01:52;;;;;;;14.02;8.48;;;;;;;16.66;74.85;97598.06;5004878;28;20145;-61
2022/10/11 07:04:18;;;;;;;16.20;7.28;;;;;;;16.20;75.80;97609.84;5002283;28;20111;-65
2022/10/11 07:06:45;;;;;;;12.82;8.70;;;;;;;16.49;77.48;97645.16;5003668;28;20084;-69
2022/10/11 07:09:12;;;;;;;10.30;7.50;;;;;;;16.69;76.36;97682.00;5007351;28;20153;-71
2022/10/11 07:11:38;;;;;;;11.05;7.90;;;;;;;16.08;80.04;97691.25;5023751;28;20519;-60
2022/10/11 07:14:06;;;;;;;15.20;8.57;;;;;;;14.31;81.13;97414.06;5025951;28;20134;-70
2022/10/11 07:16:35;;;;;;;13.13;8.02;;;;;;;16.23;80.10;97653.00;5026346;28;20057;-66
2022/10/11 07:19:04;;;;;;;14.07;7.82;;;;;;;15.42;76.89;97457.06;5026795;28;20054;-66
2022/10/11 07:21:33;;;;;;;10.20;6.65;;;;;;;17.30;75.49;97689.31;5025119;28;20053;-66
2022/10/11 07:24:00;;;;;;;12.15;7.95;;;;;;;16.86;76.93;97695.22;5025184;28;20498;-66
2022/10/11 07:26:27;;;;;;;13.73;8.15;;;;;;;16.69;75.56;97605.66;5025821;28;20535;-67
2022/10/11 07:29:02;;;;;;;10.35;7.22;;;;;;;17.18;73.44;97642.09;5019386;28;20060;-70
2022/10/11 07:31:29;;;;;;;9.65;7.20;;;;;;;16.87;73.87;97623.25;5025891;28;20060;-65
2022/10/11 07:33:56;;;;;;;12.77;7.50;;;;;;;17.42;72.56;97646.91;5025028;28;20053;-64
2022/10/11 07:36:22;;;;;;;10.60;7.00;;;;;;;17.44;71.02;97599.69;5024389;28;20053;-66
2022/10/11 07:38:50;;;;;;;12.68;7.22;;;;;;;17.35;70.42;97574.09;5026146;28;20155;-65
2022/10/11 07:41:17;;;;;;;10.35;6.85;;;;;;;18.29;69.83;97684.47;5025472;28;20061;-65
2022/10/11 07:43:45;;;;;;;13.25;6.75;;;;;;;18.24;68.97;97687.66;5026400;28;20429;-65
2022/10/11 07:46:13;;;;;;;11.45;6.97;;;;;;;18.31;68.30;97694.06;5022275;28;20239;-71
2022/10/11 07:48:40;;;;;;;12.77;7.80;;;;;;;17.84;69.93;97686.97;5026615;28;20156;-66
2022/10/11 07:51:19;;;;;;;13.60;7.15;;;;;;;18.13;67.03;97699.72;5026325;28;20049;-65
2022/10/11 07:53:48;;;;;;;8.55;6.25;;;;;;;18.45;66.03;97694.03;5026066;28;20053;-65
2022/10/11 07:56:17;;;;;;;11.38;6.90;;;;;;;18.24;67.45;97698.91;5025110;28;20085;-63
2022/10/11 07:58:49;;;;;;;8.63;5.97;;;;;;;18.02;67.48;97675.69;5017057;28;20504;-64
2022/10/11 08:01:17;;;;;;;8.13;6.25;;;;;;;16.61;67.40;97440.56;5016344;28;20117;-70
2022/10/11 08:03:43;;;;;;;11.00;6.05;;;;;;;17.60;66.38;97653.34;5024415;28;20578;-70
2022/10/11 08:06:13;;;;;;;10.88;6.45;;;;;;;17.59;65.06;97618.13;5025767;28;20534;-67
2022/10/11 08:08:40;;;;;;;11.40;6.35;;;;;;;18.45;64.97;97694.03;5023369;28;20100;-69
2022/10/11 08:11:07;;;;;;;24.60;10.07;;;;;;;18.65;64.68;97678.31;5016671;28;20500;-68
2022/10/11 08:13:34;;;;;;;9.63;6.60;;;;;;;18.50;64.27;97651.53;5017254;28;20583;-68
2022/10/11 08:16:07;;;;;;;10.75;6.53;;;;;;;16.23;65.38;97393.81;5020946;28;20085;-68
2022/10/11 08:18:34;;;;;;;14.82;8.10;;;;;;;18.62;64.10;97665.09;5016012;28;20046;-68
2022/10/11 08:21:05;;;;;;;15.50;7.93;;;;;;;18.69;64.71;97670.69;5021394;28;20080;-65
2022/10/11 08:23:32;;;;;;;9.63;6.95;;;;;;;18.90;64.58;97670.59;5023801;28;20147;-67
2022/10/11 08:25:59;;;;;;;8.82;6.65;;;;;;;19.26;63.79;97666.34;5025271;28;20206;-67
2022/10/11 08:28:25;;;;;;;11.25;6.78;;;;;;;19.51;62.39;97666.19;5025092;28;20622;-66
2022/10/11 08:30:53;;;;;;;10.93;6.70;;;;;;;19.58;62.38;97665.31;5023719;28;20193;-66
2022/10/11 08:33:22;;;;;;;17.23;6.78;;;;;;;19.40;62.21;97621.31;5025145;28;20060;-70
2022/10/11 08:35:51;;;;;;;14.07;6.93;;;;;;;19.43;61.76;97609.25;5017965;28;20053;-71
2022/10/11 08:38:18;;;;;;;8.95;7.05;;;;;;;19.54;62.21;97629.63;5023760;28;20061;-62
2022/10/11 08:40:57;;;;;;;12.88;8.40;;;;;;;18.38;65.27;97635.16;5025087;28;20160;-72
2022/10/11 08:43:48;;;;;;;15.10;8.68;;;;;;;19.12;65.03;97660.84;5024547;28;20073;-67
2022/10/11 08:46:19;;;;;;;9.80;7.13;;;;;;;19.46;63.91;97658.19;5019537;28;20085;-68
2022/10/11 08:48:50;;;;;;;12.75;6.93;;;;;;;19.20;63.27;97609.00;5022769;28;20110;-68
2022/10/11 08:51:34;;;;;;;15.68;7.25;;;;;;;19.49;62.19;97630.06;5018342;28;20527;-68
2022/10/11 08:54:18;;;;;;;11.35;7.47;;;;;;;19.21;61.54;97562.03;5022974;28;20057;-69
2022/10/11 08:56:46;;;;;;;10.98;6.40;;;;;;;18.33;66.04;97651.56;5022875;28;20061;-69
2022/10/11 08:59:12;;;;;;;12.45;6.93;;;;;;;17.53;69.68;97653.34;5024117;28;20515;-69
2022/10/11 09:01:46;;;;;;;9.80;7.45;;;;;;;17.36;70.54;97620.50;5019329;28;20042;-67
2022/10/11 09:04:14;;;;;;;12.70;7.95;;;;;;;17.20;70.27;97581.69;5017844;28;20061;-71
2022/10/11 09:06:52;;;;;;;13.10;7.28;;;;;;;17.94;68.93;97651.69;5023396;28;20573;-67
2022/10/11 09:09:27;;;;;;;17.05;7.63;;;;;;;17.92;69.74;97642.88;5024289;28;20061;-65
2022/10/11 09:12:18;;;;;;;13.23;7.47;;;;;;;18.34;68.30;97642.75;5019898;28;20061;-68
2022/10/11 09:15:00;;;;;;;32.10;14.48;;;;;;;18.68;66.70;97637.44;5024538;28;20516;-69
2022/10/11 09:17:35;;;;;;;20.10;10.90;;;;;;;18.78;66.66;97620.50;5014956;28;20111;-68
2022/10/11 09:20:20;;;;;;;9.52;6.55;;;;;;;17.73;69.88;97626.50;5020981;28;20132;-66
2022/10/11 09:22:55;;;;;;;9.55;6.22;;;;;;;17.36;71.09;97631.69;5022997;28;20724;-74
2022/10/11 09:25:24;;;;;;;10.02;7.45;;;;;;;15.05;71.84;97277.84;5024072;28;20049;-69
2022/10/11 09:28:29;;;;;;;15.82;7.28;;;;;;;17.46;71.90;97631.75;5019354;28;20041;-62
2022/10/11 09:30:57;;;;;;;14.82;8.10;;;;;;;16.73;69.81;97455.34;5003824;28;20136;-75
2022/10/11 09:33:46;;;;;;;12.93;7.55;;;;;;;17.88;67.47;97553.19;5005778;28;20201;-72
2022/10/11 09:36:31;;;;;;;14.45;8.10;;;;;;;18.75;67.14;97643.78;5020378;28;20502;-72
2022/10/11 09:39:04;;;;;;;9.63;6.85;;;;;;;18.98;65.45;97643.25;5021228;28;20247;-75
2022/10/11 09:41:40;;;;;;;10.88;7.45;;;;;;;18.97;64.56;97591.91;5022967;28;20049;-71
2022/10/11 09:44:11;;;;;;;13.48;7.78;;;;;;;18.84;63.19;97537.44;5023375;28;20121;-67
2022/10/11 09:46:41;;;;;;;16.77;9.90;;;;;;;19.26;62.48;97520.25;5005952;28;20103;-66
2022/10/11 09:49:14;;;;;;;14.23;6.78;;;;;;;19.38;63.41;97646.19;5020738;28;20080;-71
2022/10/11 09:51:48;;;;;;;12.35;8.13;;;;;;;19.76;63.22;97626.63;5010639;28;20061;-74
2022/10/11 09:54:17;;;;;;;12.13;7.05;;;;;;;20.13;61.02;97601.28;5012018;28;20049;-65
2022/10/11 09:56:44;;;;;;;10.75;6.63;;;;;;;20.71;59.56;97631.94;5024207;28;20089;-70
2022/10/11 09:59:31;;;;;;;9.60;6.40;;;;;;;20.93;58.40;97633.25;5021140;28;20519;-72
2022/10/11 10:02:13;;;;;;;16.42;6.60;;;;;;;21.35;57.42;97629.84;5004358;28;20148;-68
2022/10/11 10:05:13;;;;;;;7.97;6.43;;;;;;;21.79;55.75;97617.44;5002182;28;20077;-69
2022/10/11 10:08:03;;;;;;;12.18;6.68;;;;;;;20.90;55.15;97476.38;5002901;28;20093;-67
2022/10/11 10:10:58;;;;;;;9.05;6.75;;;;;;;21.56;55.84;97604.09;5006050;28;20054;-68
2022/10/11 10:13:48;;;;;;;10.13;7.57;;;;;;;20.66;58.23;97612.75;5003757;28;20094;-66
2022/10/11 10:16:36;;;;;;;15.93;7.63;;;;;;;19.64;59.29;97534.34;5004986;28;20112;-63
2022/10/11 10:19:17;;;;;;;20.80;12.40;;;;;;;19.68;59.23;97484.53;5005309;28;20128;-69
2022/10/11 10:21:49;;;;;;;13.73;6.40;;;;;;;20.14;58.36;97541.06;5004552;28;20508;-67
2022/10/11 10:24:32;;;;;;;11.52;8.07;;;;;;;20.08;58.58;97537.06;5004629;28;20119;-66
2022/10/11 10:27:23;;;;;;;12.57;6.75;;;;;;;20.03;58.65;97546.75;5016131;28;20488;-66
2022/10/11 10:30:13;;;;;;;9.80;7.22;;;;;;;20.00;58.37;97530.72;5002395;28;20147;-67
2022/10/11 10:32:52;;;;;;;12.27;6.60;;;;;;;20.38;58.84;97597.00;5017395;28;20061;-69
2022/10/11 10:36:06;;;;;;;8.52;6.78;;;;;;;20.56;57.98;97596.78;5005366;28;20111;-68
2022/10/11 10:38:43;;;;;;;14.82;7.72;;;;;;;20.28;58.91;97591.50;4994413;28;20068;-66
2022/10/11 10:41:16;;;;;;;12.93;6.60;;;;;;;20.25;58.04;97538.91;5004418;28;20049;-67
2022/10/11 10:43:57;;;;;;;8.90;6.60;;;;;;;20.82;57.31;97576.28;5011254;28;20135;-68
2022/10/11 10:46:52;;;;;;;10.57;6.00;;;;;;;21.08;56.84;97617.78;5009935;28;20067;-71
2022/10/11 10:49:28;;;;;;;8.48;7.00;;;;;;;21.45;56.11;97569.66;5008017;28;20214;-67
2022/10/11 10:52:38;;;;;;;19.05;10.65;;;;;;;21.36;56.41;97577.88;5007765;28;20050;-72
2022/10/11 10:55:24;;;;;;;13.82;7.75;;;;;;;21.72;55.20;97576.00;5008380;28;20085;-71
2022/10/11 10:57:56;;;;;;;10.38;7.70;;;;;;;21.36;55.86;97566.59;5007649;28;20058;-63
2022/10/11 11:00:23;;;;;;;13.98;7.47;;;;;;;21.27;55.33;97524.09;5007326;28;20088;-71
2022/10/11 11:03:01;;;;;;;10.43;6.60;;;;;;;21.82;54.74;97572.25;5016124;28;20531;-68
2022/10/11 11:05:36;;;;;;;9.68;6.57;;;;;;;22.02;54.12;97558.94;5027199;28;20506;-69
2022/10/11 11:08:16;;;;;;;9.20;6.68;;;;;;;21.79;53.77;97525.16;5027387;28;20136;-70
2022/10/11 11:11:02;;;;;;;12.13;6.25;;;;;;;22.03;52.93;97528.72;5020113;28;20153;-76
2022/10/11 11:13:40;;;;;;;12.13;6.80;;;;;;;22.36;52.84;97545.34;5007608;28;20053;-66
2022/10/11 11:16:30;;;;;;;11.05;7.18;;;;;;;21.67;52.78;97508.03;5005708;28;20054;-70
2022/10/11 11:19:05;;;;;;;19.42;7.65;;;;;;;21.37;55.26;97550.50;5008067;28;20504;-66
2022/10/11 11:21:55;;;;;;;10.70;7.40;;;;;;;21.78;54.03;97548.94;5016456;28;20080;-72
2022/10/11 11:24:59;;;;;;;10.98;7.10;;;;;;;21.78;54.39;97543.28;5006215;28;20138;-72
2022/10/11 11:27:44;;;;;;;11.57;7.32;;;;;;;21.96;53.70;97538.13;5011973;28;20080;-68
2022/10/11 11:30:17;;;;;;;10.38;6.53;;;;;;;22.38;52.04;97537.22;5015483;28;20065;-70
2022/10/11 11:32:53;;;;;;;12.85;6.70;;;;;;;22.44;51.96;97546.78;5005803;28;20062;-68
2022/10/11 11:35:20;;;;;;;9.20;6.25;;;;;;;21.83;53.38;97536.38;5006496;28;20137;-67
2022/10/11 11:37:50;;;;;;;12.82;6.38;;;;;;;20.02;57.65;97516.25;5007012;28;20081;-67
2022/10/11 11:40:42;;;;;;;14.50;6.80;;;;;;;20.21;56.41;97383.38;5009657;28;20100;-70
2022/10/11 11:43:26;;;;;;;9.75;6.60;;;;;;;21.88;54.23;97519.72;5008142;28;20525;-66
2022/10/11 11:45:58;;;;;;;10.77;6.05;;;;;;;22.06;53.35;97525.81;5009823;28;20124;-68
2022/10/11 11:48:25;;;;;;;9.18;6.60;;;;;;;22.28;52.88;97532.63;5023116;28;20545;-74